Time;durP1;ratioP1;P1;durP2;ratioP2;P2;SDS_P1;SDS_P2;PMS_P1;PMS_P2;Temp;Humidity;BMP_temperature;BMP_pressure;BME280_temperature;BME280_humidity;BME280_pressure;Samples;Min_cycle;Max_cycle;Signal;HPM_P1;HPM_P2
2021/06/18 00:00:31;;;;;;;;;;;21.50;99.90;;;;;;5095368;28;19912;-76
2021/06/18 00:02:57;;;;;;;;;;;21.50;99.90;;;;;;5094658;28;19908;-76
2021/06/18 00:05:22;;;;;;;;;;;21.40;99.90;;;;;;5094431;28;19915;-75
2021/06/18 00:07:49;;;;;;;;;;;21.40;99.90;;;;;;5095085;28;19908;-75
2021/06/18 00:10:15;;;;;;;;;;;21.50;99.90;;;;;;5094928;28;19916;-75
2021/06/18 00:12:41;;;;;;;;;;;21.50;99.90;;;;;;5094154;28;19915;-76
2021/06/18 00:15:07;;;;;;;;;;;21.40;99.90;;;;;;5094769;28;19917;-75
2021/06/18 00:17:33;;;;;;;;;;;21.50;99.90;;;;;;5094431;28;19908;-75
2021/06/18 00:19:58;;;;;;;;;;;21.50;99.90;;;;;;5094139;28;19916;-74
2021/06/18 00:22:24;;;;;;;;;;;21.50;99.90;;;;;;5094863;28;20314;-76
2021/06/18 00:24:49;;;;;;;;;;;21.50;99.90;;;;;;5095003;28;19914;-75
2021/06/18 00:27:15;;;;;;;;;;;21.50;99.90;;;;;;5093925;28;20395;-75
2021/06/18 00:29:40;;;;;;;;;;;21.50;99.90;;;;;;5094534;28;19908;-76
2021/06/18 00:32:06;;;;;;;;;;;21.40;99.90;;;;;;5094042;28;19912;-77
2021/06/18 00:34:31;;;;;;;;;;;21.50;99.90;;;;;;5094393;28;19922;-76
2021/06/18 00:36:57;;;;;;;;;;;21.50;99.90;;;;;;5094586;28;20364;-76
2021/06/18 00:39:22;;;;;;;;;;;21.40;99.90;;;;;;5093666;28;19908;-76
2021/06/18 00:41:48;;;;;;;;;;;21.30;99.90;;;;;;5094528;28;19915;-76
2021/06/18 00:44:14;;;;;;;;;;;21.30;99.90;;;;;;5094492;28;20324;-76
2021/06/18 00:46:40;;;;;;;;;;;21.30;99.90;;;;;;5093547;28;19960;-75
2021/06/18 00:49:06;;;;;;;;;;;21.30;99.90;;;;;;5094322;28;19915;-76
2021/06/18 00:51:32;;;;;;;;;;;22.00;99.90;;;;;;5094635;28;19908;-76
2021/06/18 00:53:58;;;;;;;;;;;21.20;99.90;;;;;;5093750;28;19923;-76
2021/06/18 00:56:24;;;;;;;;;;;21.20;99.90;;;;;;5094300;28;19916;-76
2021/06/18 00:58:49;;;;;;;;;;;21.20;99.90;;;;;;5094146;28;20352;-75
2021/06/18 01:01:16;;;;;;;;;;;21.10;99.90;;;;;;5094327;28;19915;-75
2021/06/18 01:03:41;;;;;;;;;;;21.20;99.90;;;;;;5094399;28;20021;-75
2021/06/18 01:06:08;;;;;;;;;;;21.30;99.90;;;;;;5094064;28;19937;-75
2021/06/18 01:08:44;;;;;;;;;;;21.20;99.90;;;;;;5093808;28;20326;-75
2021/06/18 01:11:24;;;;;;;;;;;21.20;99.90;;;;;;5093839;28;20249;-75
2021/06/18 01:14:02;;;;;;;;;;;21.20;99.90;;;;;;5094210;28;20283;-75
2021/06/18 01:16:43;;;;;;;;;;;21.20;99.90;;;;;;5093309;28;19935;-75
2021/06/18 01:19:15;;;;;;;;;;;21.20;99.90;;;;;;5093969;28;19908;-75
2021/06/18 01:21:42;;;;;;;;;;;21.20;99.90;;;;;;5093295;28;20277;-76
2021/06/18 01:24:26;;;;;;;;;;;21.20;99.90;;;;;;5094057;28;19908;-76
2021/06/18 01:26:57;;;;;;;;;;;21.20;99.90;;;;;;5093896;28;19912;-76
2021/06/18 01:29:24;;;;;;;;;;;21.20;99.90;;;;;;5093180;28;19951;-76
2021/06/18 01:31:50;;;;;;;;;;;21.20;99.90;;;;;;5094075;28;19909;-76
2021/06/18 01:34:21;;;;;;;;;;;21.20;99.90;;;;;;5093569;28;19970;-76
2021/06/18 01:36:48;;;;;;;;;;;21.10;99.90;;;;;;5092455;28;20272;-76
2021/06/18 01:39:14;;;;;;;;;;;21.00;99.90;;;;;;5093284;28;19915;-76
2021/06/18 01:41:41;;;;;;;;;;;21.00;99.90;;;;;;5093629;28;19999;-76
2021/06/18 01:44:08;;;;;;;;;;;20.90;99.90;;;;;;5091366;28;19908;-75
2021/06/18 01:46:35;;;;;;;;;;;20.90;99.90;;;;;;5093352;28;19908;-76
2021/06/18 01:49:05;;;;;;;;;;;20.80;99.90;;;;;;5093900;28;20005;-75
2021/06/18 01:51:31;;;;;;;;;;;20.70;99.90;;;;;;5092763;28;19908;-75
2021/06/18 01:53:58;;;;;;;;;;;20.60;99.90;;;;;;5093164;28;20375;-76
2021/06/18 01:56:24;;;;;;;;;;;20.60;99.90;;;;;;5092657;28;20356;-76
2021/06/18 01:58:51;;;;;;;;;;;20.60;99.90;;;;;;5093564;28;20280;-76
2021/06/18 02:01:19;;;;;;;;;;;20.60;99.90;;;;;;5093898;28;19915;-77
2021/06/18 02:03:45;;;;;;;;;;;20.50;99.90;;;;;;5092424;28;20356;-74
2021/06/18 02:06:13;;;;;;;;;;;20.50;99.90;;;;;;5093185;28;19916;-76
2021/06/18 02:08:38;;;;;;;;;;;20.50;99.90;;;;;;5093068;28;19915;-75
2021/06/18 02:11:04;;;;;;;;;;;20.50;99.90;;;;;;5092683;28;19909;-75
2021/06/18 02:13:30;;;;;;;;;;;20.50;99.90;;;;;;5093319;28;19908;-77
2021/06/18 02:15:57;;;;;;;;;;;20.50;99.90;;;;;;5093205;28;19916;-74
2021/06/18 02:18:25;;;;;;;;;;;20.50;99.90;;;;;;5092254;28;20352;-76
2021/06/18 02:20:52;;;;;;;;;;;20.50;99.90;;;;;;5092944;28;19908;-75
2021/06/18 02:23:20;;;;;;;;;;;20.50;99.90;;;;;;5093088;28;19915;-77
2021/06/18 02:25:46;;;;;;;;;;;20.40;99.90;;;;;;5092618;28;19915;-77
2021/06/18 02:28:11;;;;;;;;;;;20.40;99.90;;;;;;5093069;28;19912;-75
2021/06/18 02:30:37;;;;;;;;;;;20.40;99.90;;;;;;5092936;28;19912;-76
2021/06/18 02:33:10;;;;;;;;;;;20.40;99.90;;;;;;5093798;28;19912;-77
2021/06/18 02:35:35;;;;;;;;;;;20.40;99.90;;;;;;5096548;28;19920;-75
2021/06/18 02:38:01;;;;;;;;;;;20.40;99.90;;;;;;5096644;28;19938;-75
2021/06/18 02:40:26;;;;;;;;;;;20.40;99.90;;;;;;5096151;28;19908;-76
2021/06/18 02:42:52;;;;;;;;;;;20.40;99.90;;;;;;5096814;28;19908;-76
2021/06/18 02:45:17;;;;;;;;;;;20.40;99.90;;;;;;5096801;28;19915;-77
2021/06/18 02:47:45;;;;;;;;;;;20.30;99.90;;;;;;5095829;28;19951;-77
2021/06/18 02:50:15;;;;;;;;;;;20.40;99.90;;;;;;5096803;28;19908;-76
2021/06/18 02:52:47;;;;;;;;;;;20.40;99.90;;;;;;5095953;28;19912;-76
2021/06/18 02:55:14;;;;;;;;;;;20.30;99.90;;;;;;5096438;28;19947;-75
2021/06/18 02:57:52;;;;;;;;;;;20.30;99.90;;;;;;5095120;28;19916;-74
2021/06/18 03:00:19;;;;;;;;;;;20.20;99.90;;;;;;5095681;28;19915;-76
2021/06/18 03:02:46;;;;;;;;;;;20.20;99.90;;;;;;5096326;28;19908;-76
2021/06/18 03:05:13;;;;;;;;;;;20.20;99.90;;;;;;5096314;28;20003;-77
2021/06/18 03:07:42;;;;;;;;;;;20.20;99.90;;;;;;5095469;28;19962;-77
2021/06/18 03:10:08;;;;;;;;;;;20.10;99.90;;;;;;5096207;28;19950;-77
2021/06/18 03:12:36;;;;;;;;;;;20.10;99.90;;;;;;5096102;28;19912;-77
2021/06/18 03:15:03;;;;;;;;;;;20.10;99.90;;;;;;5095470;28;20046;-77
2021/06/18 03:17:29;;;;;;;;;;;20.10;99.90;;;;;;5096006;28;20395;-77
2021/06/18 03:19:57;;;;;;;;;;;20.00;99.90;;;;;;5096157;28;19946;-77
2021/06/18 03:22:23;;;;;;;;;;;20.00;99.90;;;;;;5095448;28;19996;-77
2021/06/18 03:24:51;;;;;;;;;;;20.00;99.90;;;;;;5095757;28;20018;-77
2021/06/18 03:27:20;;;;;;;;;;;20.10;99.90;;;;;;5095703;28;19994;-77
2021/06/18 03:29:46;;;;;;;;;;;20.10;99.90;;;;;;5095178;28;19917;-77
2021/06/18 03:32:12;;;;;;;;;;;20.10;99.90;;;;;;5095672;28;19912;-76
2021/06/18 03:34:38;;;;;;;;;;;20.10;99.90;;;;;;5095749;28;19920;-75
2021/06/18 03:37:04;;;;;;;;;;;20.20;99.90;;;;;;5094713;28;19950;-73
2021/06/18 03:39:30;;;;;;;;;;;20.20;99.90;;;;;;5095504;28;19969;-73
2021/06/18 03:41:56;;;;;;;;;;;20.20;99.90;;;;;;5094700;28;20381;-74
2021/06/18 03:44:22;;;;;;;;;;;20.20;99.90;;;;;;5095086;28;20053;-75
2021/06/18 03:46:48;;;;;;;;;;;20.20;99.90;;;;;;5095515;28;19931;-74
2021/06/18 03:49:14;;;;;;;;;;;20.20;99.90;;;;;;5094681;28;19948;-74
2021/06/18 03:51:40;;;;;;;;;;;20.30;99.90;;;;;;5095257;28;20038;-74
2021/06/18 03:54:06;;;;;;;;;;;20.20;99.90;;;;;;5095208;28;19916;-74
2021/06/18 03:56:32;;;;;;;;;;;20.20;99.90;;;;;;5094770;28;19921;-74
2021/06/18 03:58:58;;;;;;;;;;;20.20;99.90;;;;;;5094948;28;19919;-74
2021/06/18 04:01:27;;;;;;;;;;;20.20;99.90;;;;;;5094985;28;19908;-74
2021/06/18 04:03:53;;;;;;;;;;;20.10;99.90;;;;;;5094183;28;19912;-73
2021/06/18 04:06:19;;;;;;;;;;;20.10;99.90;;;;;;5095048;28;19912;-73
2021/06/18 04:08:44;;;;;;;;;;;20.10;99.90;;;;;;5094645;28;20368;-72
2021/06/18 04:11:10;;;;;;;;;;;20.10;99.90;;;;;;5094259;28;20348;-72
2021/06/18 04:13:36;;;;;;;;;;;20.00;99.90;;;;;;5094524;28;19908;-73
2021/06/18 04:16:02;;;;;;;;;;;19.90;99.90;;;;;;5094600;28;19974;-73
2021/06/18 04:18:30;;;;;;;;;;;19.90;99.90;;;;;;5094538;28;19908;-73
2021/06/18 04:20:56;;;;;;;;;;;19.80;99.90;;;;;;5094548;28;19944;-73
2021/06/18 04:23:28;;;;;;;;;;;19.70;99.90;;;;;;5094518;28;19919;-73
2021/06/18 04:25:54;;;;;;;;;;;19.70;99.90;;;;;;5093936;28;19909;-73
2021/06/18 04:28:19;;;;;;;;;;;19.70;99.90;;;;;;5094740;28;19931;-74
2021/06/18 04:30:45;;;;;;;;;;;19.70;99.90;;;;;;5094480;28;19915;-73
2021/06/18 04:33:10;;;;;;;;;;;19.70;99.90;;;;;;5093616;28;19915;-73
2021/06/18 04:35:36;;;;;;;;;;;19.70;99.90;;;;;;5094137;28;19927;-73
2021/06/18 04:38:01;;;;;;;;;;;19.70;99.90;;;;;;5094193;28;19994;-73
2021/06/18 04:40:27;;;;;;;;;;;19.50;99.90;;;;;;5093382;28;19908;-73
2021/06/18 04:42:52;;;;;;;;;;;19.50;99.90;;;;;;5094182;28;19968;-73
2021/06/18 04:45:18;;;;;;;;;;;19.50;99.90;;;;;;5093614;28;19979;-73
2021/06/18 04:47:44;;;;;;;;;;;19.50;99.90;;;;;;5094337;28;19908;-71
2021/06/18 04:50:09;;;;;;;;;;;19.40;99.90;;;;;;5094075;28;19977;-72
2021/06/18 04:52:36;;;;;;;;;;;19.40;99.90;;;;;;5093174;28;19912;-72
2021/06/18 04:55:03;;;;;;;;;;;19.40;99.90;;;;;;5093563;28;19920;-71
2021/06/18 04:57:29;;;;;;;;;;;19.40;99.90;;;;;;5093786;28;19908;-73
2021/06/18 04:59:54;;;;;;;;;;;19.30;99.90;;;;;;5093040;28;19985;-73
2021/06/18 05:02:20;;;;;;;;;;;19.30;99.90;;;;;;5093780;28;19916;-72
2021/06/18 05:04:45;;;;;;;;;;;19.30;99.90;;;;;;5093909;28;19915;-72
2021/06/18 05:07:11;;;;;;;;;;;19.30;99.90;;;;;;5092957;28;19912;-72
2021/06/18 05:09:36;;;;;;;;;;;19.40;99.90;;;;;;5093808;28;19931;-73
2021/06/18 05:12:02;;;;;;;;;;;19.40;99.90;;;;;;5093951;28;19915;-73
2021/06/18 05:14:27;;;;;;;;;;;19.40;99.90;;;;;;5092912;28;19913;-72
2021/06/18 05:16:52;;;;;;;;;;;19.50;99.90;;;;;;5093849;28;19909;-72
2021/06/18 05:19:18;;;;;;;;;;;19.50;99.90;;;;;;5093687;28;20368;-73
2021/06/18 05:21:43;;;;;;;;;;;19.60;99.90;;;;;;5092818;28;19961;-73
2021/06/18 05:24:09;;;;;;;;;;;19.60;99.90;;;;;;5093698;28;19908;-72
2021/06/18 05:26:37;;;;;;;;;;;19.70;99.90;;;;;;5093677;28;19912;-73
2021/06/18 05:29:03;;;;;;;;;;;19.80;99.90;;;;;;5092914;28;19969;-73
2021/06/18 05:31:28;;;;;;;;;;;19.80;99.90;;;;;;5093690;28;19912;-72
2021/06/18 05:33:54;;;;;;;;;;;19.90;99.90;;;;;;5093294;28;19908;-73
2021/06/18 05:36:19;;;;;;;;;;;20.00;99.90;;;;;;5092541;28;19928;-73
2021/06/18 05:38:45;;;;;;;;;;;20.10;99.90;;;;;;5093622;28;19908;-72
2021/06/18 05:41:10;;;;;;;;;;;20.10;99.90;;;;;;5093459;28;19915;-73
2021/06/18 05:43:36;;;;;;;;;;;20.20;99.90;;;;;;5092843;28;20375;-72
2021/06/18 05:46:01;;;;;;;;;;;20.20;99.90;;;;;;5093129;28;19912;-73
2021/06/18 05:48:27;;;;;;;;;;;20.20;99.90;;;;;;5093136;28;19966;-73
2021/06/18 05:50:53;;;;;;;;;;;20.30;99.90;;;;;;5093245;28;19954;-73
2021/06/18 05:53:19;;;;;;;;;;;20.30;99.90;;;;;;5093245;28;20264;-73
2021/06/18 05:55:44;;;;;;;;;;;20.30;99.90;;;;;;5092563;28;20027;-73
2021/06/18 05:58:10;;;;;;;;;;;20.30;99.90;;;;;;5093290;28;19908;-73
2021/06/18 06:00:36;;;;;;;;;;;20.30;99.90;;;;;;5093231;28;19908;-73
2021/06/18 06:03:01;;;;;;;;;;;20.30;99.90;;;;;;5092415;28;19912;-73
2021/06/18 06:05:27;;;;;;;;;;;20.30;99.90;;;;;;5093026;28;19908;-73
2021/06/18 06:07:53;;;;;;;;;;;20.30;99.90;;;;;;5095988;28;19961;-71
2021/06/18 06:10:20;;;;;;;;;;;20.30;99.90;;;;;;5096558;28;19942;-72
2021/06/18 06:12:45;;;;;;;;;;;20.30;99.90;;;;;;5097242;28;19908;-72
2021/06/18 06:15:11;;;;;;;;;;;20.40;99.90;;;;;;5097092;28;19920;-72
2021/06/18 06:17:36;;;;;;;;;;;20.40;99.90;;;;;;5096386;28;19916;-71
2021/06/18 06:20:03;;;;;;;;;;;20.50;99.90;;;;;;5096620;28;20383;-72
2021/06/18 06:22:29;;;;;;;;;;;20.50;99.90;;;;;;5097078;28;19916;-72
2021/06/18 06:24:54;;;;;;;;;;;20.50;99.90;;;;;;5096201;28;20232;-72
2021/06/18 06:27:19;;;;;;;;;;;20.60;99.90;;;;;;5096936;28;19985;-72
2021/06/18 06:29:45;;;;;;;;;;;20.60;99.90;;;;;;5096980;28;19931;-72
2021/06/18 06:32:10;;;;;;;;;;;20.50;99.90;;;;;;5095800;28;20406;-74
2021/06/18 06:34:36;;;;;;;;;;;20.60;99.90;;;;;;5096768;28;19923;-73
2021/06/18 06:37:01;;;;;;;;;;;20.60;99.90;;;;;;5096486;28;20316;-73
2021/06/18 06:39:27;;;;;;;;;;;20.80;99.90;;;;;;5096003;28;19908;-74
2021/06/18 06:41:52;;;;;;;;;;;20.90;99.90;;;;;;5096571;28;19912;-73
2021/06/18 06:44:18;;;;;;;;;;;21.00;99.90;;;;;;5096585;28;19915;-73
2021/06/18 06:46:43;;;;;;;;;;;21.10;99.90;;;;;;5095921;28;19908;-73
2021/06/18 06:49:09;;;;;;;;;;;21.10;99.90;;;;;;5096475;28;20304;-73
2021/06/18 06:51:35;;;;;;;;;;;21.20;99.90;;;;;;5096653;28;19999;-73
2021/06/18 06:54:00;;;;;;;;;;;21.40;99.90;;;;;;5095720;28;19913;-73
2021/06/18 06:56:25;;;;;;;;;;;21.30;99.90;;;;;;5096381;28;19908;-73
2021/06/18 06:58:53;;;;;;;;;;;21.30;99.90;;;;;;5095801;28;19950;-74
2021/06/18 07:01:18;;;;;;;;;;;21.30;99.90;;;;;;5096371;28;19998;-73
2021/06/18 07:03:44;;;;;;;;;;;21.40;99.90;;;;;;5096260;28;19993;-74
2021/06/18 07:06:10;;;;;;;;;;;21.40;99.90;;;;;;5095347;28;20319;-73
2021/06/18 07:08:35;;;;;;;;;;;22.00;99.90;;;;;;5096306;28;19915;-73
2021/06/18 07:11:01;;;;;;;;;;;21.40;99.90;;;;;;5096221;28;20383;-73
2021/06/18 07:13:27;;;;;;;;;;;21.40;99.90;;;;;;5095361;28;19908;-73
2021/06/18 07:15:52;;;;;;;;;;;21.30;99.90;;;;;;5095986;28;20007;-73
2021/06/18 07:18:18;;;;;;;;;;;21.30;99.90;;;;;;5095240;28;19909;-72
2021/06/18 07:20:43;;;;;;;;;;;21.30;99.90;;;;;;5095072;28;19951;-73
2021/06/18 07:23:09;;;;;;;;;;;21.30;99.90;;;;;;5095829;28;19915;-73
2021/06/18 07:25:35;;;;;;;;;;;21.30;99.90;;;;;;5095943;28;20272;-73
2021/06/18 07:28:03;;;;;;;;;;;21.30;99.90;;;;;;5094951;28;19908;-73
2021/06/18 07:30:28;;;;;;;;;;;21.30;99.90;;;;;;5095821;28;19908;-74
2021/06/18 07:32:53;;;;;;;;;;;21.30;99.90;;;;;;5095736;28;20398;-74
2021/06/18 07:35:19;;;;;;;;;;;21.20;99.90;;;;;;5094475;28;20068;-73
2021/06/18 07:37:45;;;;;;;;;;;21.20;99.90;;;;;;5095498;28;19955;-73
2021/06/18 07:40:12;;;;;;;;;;;21.20;99.90;;;;;;5095657;28;19912;-73
2021/06/18 07:42:38;;;;;;;;;;;21.30;99.90;;;;;;5094593;28;20385;-74
2021/06/18 07:45:04;;;;;;;;;;;21.30;99.90;;;;;;5095595;28;19908;-73
2021/06/18 07:47:29;;;;;;;;;;;21.30;99.90;;;;;;5095423;28;20283;-74
2021/06/18 07:49:55;;;;;;;;;;;21.40;99.90;;;;;;5094819;28;19946;-73
2021/06/18 07:52:20;;;;;;;;;;;21.50;99.90;;;;;;5095476;28;20375;-74
2021/06/18 07:54:47;;;;;;;;;;;21.50;99.90;;;;;;5095305;28;19922;-73
2021/06/18 07:57:12;;;;;;;;;;;21.60;99.90;;;;;;5094549;28;19987;-73
2021/06/18 07:59:38;;;;;;;;;;;21.70;99.90;;;;;;5094953;28;20305;-72
2021/06/18 08:02:03;;;;;;;;;;;21.70;99.90;;;;;;5094633;28;19908;-73
2021/06/18 08:04:29;;;;;;;;;;;21.70;99.90;;;;;;5094534;28;19908;-73
2021/06/18 08:06:54;;;;;;;;;;;21.90;99.90;;;;;;5095142;28;20271;-74
2021/06/18 08:09:20;;;;;;;;;;;22.00;99.90;;;;;;5094284;28;20330;-74
2021/06/18 08:11:45;;;;;;;;;;;22.10;99.90;;;;;;5095007;28;19916;-73
2021/06/18 08:14:10;;;;;;;;;;;22.20;99.90;;;;;;5094854;28;19912;-74
2021/06/18 08:16:36;;;;;;;;;;;22.30;99.90;;;;;;5093844;28;19912;-74
2021/06/18 08:19:01;;;;;;;;;;;22.30;99.90;;;;;;5094454;28;19912;-73
2021/06/18 08:21:27;;;;;;;;;;;22.40;99.90;;;;;;5094907;28;19953;-73
2021/06/18 08:23:52;;;;;;;;;;;22.50;99.90;;;;;;5093810;28;19921;-74
2021/06/18 08:26:18;;;;;;;;;;;22.60;99.90;;;;;;5094606;28;20317;-73
2021/06/18 08:28:44;;;;;;;;;;;22.70;99.90;;;;;;5094147;28;20209;-74
2021/06/18 08:31:09;;;;;;;;;;;22.80;99.90;;;;;;5093273;28;19991;-73
2021/06/18 08:33:36;;;;;;;;;;;22.80;99.90;;;;;;5094361;28;19915;-74
2021/06/18 08:36:03;;;;;;;;;;;22.90;99.90;;;;;;5093720;28;20366;-74
2021/06/18 08:38:28;;;;;;;;;;;23.00;99.90;;;;;;5093736;28;19912;-74
2021/06/18 08:40:54;;;;;;;;;;;23.10;99.90;;;;;;5093190;28;19983;-74
2021/06/18 08:43:20;;;;;;;;;;;23.20;99.90;;;;;;5094021;28;19994;-73
2021/06/18 08:45:45;;;;;;;;;;;23.30;99.90;;;;;;5093070;28;19916;-74
2021/06/18 08:48:11;;;;;;;;;;;23.40;99.90;;;;;;5094054;28;20347;-74
2021/06/18 08:50:36;;;;;;;;;;;23.40;99.90;;;;;;5093945;28;19997;-74
2021/06/18 08:53:02;;;;;;;;;;;23.40;99.90;;;;;;5093233;28;19995;-73
2021/06/18 08:55:29;;;;;;;;;;;23.50;99.90;;;;;;5093919;28;19999;-74
2021/06/18 08:57:58;;;;;;;;;;;23.50;99.90;;;;;;5093626;28;19908;-74
2021/06/18 09:00:24;;;;;;;;;;;23.50;99.90;;;;;;5092745;28;19914;-73
2021/06/18 09:02:50;;;;;;;;;;;23.60;99.90;;;;;;5093857;28;19925;-73
2021/06/18 09:05:16;;;;;;;;;;;23.60;99.90;;;;;;5093503;28;19920;-73
2021/06/18 09:07:49;;;;;;;;;;;23.70;99.90;;;;;;5092780;28;19918;-73
2021/06/18 09:10:28;;;;;;;;;;;23.70;99.90;;;;;;5093415;28;19952;-73
2021/06/18 09:13:09;;;;;;;;;;;23.80;99.90;;;;;;5092710;28;19908;-73
2021/06/18 09:15:35;;;;;;;;;;;23.90;99.90;;;;;;5093203;28;19927;-73
2021/06/18 09:18:20;;;;;;;;;;;23.90;99.90;;;;;;5093092;28;19909;-73
2021/06/18 09:20:45;;;;;;;;;;;24.00;99.90;;;;;;5092458;28;19948;-73
2021/06/18 09:23:37;;;;;;;;;;;24.00;99.90;;;;;;5093000;28;19965;-73
2021/06/18 09:26:17;;;;;;;;;;;24.10;99.90;;;;;;5090884;28;19930;-74
2021/06/18 09:29:15;;;;;;;;;;;24.30;99.90;;;;;;5092256;28;19981;-74
2021/06/18 09:31:40;;;;;;;;;;;24.40;99.90;;;;;;5069558;28;20029;-73
2021/06/18 09:34:07;;;;;;;;;;;24.40;99.90;;;;;;5092372;28;19908;-73
2021/06/18 09:36:33;;;;;;;;;;;24.40;99.90;;;;;;5092738;28;19924;-73
2021/06/18 09:39:00;;;;;;;;;;;24.50;99.90;;;;;;5093201;28;19915;-73
2021/06/18 09:41:38;;;;;;;;;;;24.60;99.90;;;;;;5091939;28;19999;-73
2021/06/18 09:44:04;;;;;;;;;;;24.70;99.90;;;;;;5092966;28;20356;-73
2021/06/18 09:46:43;;;;;;;;;;;24.80;99.90;;;;;;5093029;28;19965;-72
2021/06/18 09:49:27;;;;;;;;;;;24.90;99.90;;;;;;5092269;28;19912;-73
2021/06/18 09:51:56;;;;;;;;;;;25.00;99.90;;;;;;5093084;28;19916;-73
2021/06/18 09:54:22;;;;;;;;;;;25.00;99.90;;;;;;5092865;28;19920;-72
2021/06/18 09:56:47;;;;;;;;;;;25.10;99.90;;;;;;5092271;28;20286;-72
2021/06/18 09:59:23;;;;;;;;;;;25.20;99.90;;;;;;5092882;28;19908;-73
2021/06/18 10:01:52;;;;;;;;;;;25.30;99.90;;;;;;5092039;28;20359;-73
2021/06/18 10:04:19;;;;;;;;;;;25.30;99.90;;;;;;5092674;28;20359;-73
2021/06/18 10:06:44;;;;;;;;;;;25.50;99.90;;;;;;5092786;28;19915;-73
2021/06/18 10:09:11;;;;;;;;;;;25.50;99.90;;;;;;5091984;28;20331;-73
2021/06/18 10:11:39;;;;;;;;;;;25.60;99.90;;;;;;5092903;28;19908;-73
2021/06/18 10:14:05;;;;;;;;;;;25.80;99.90;;;;;;5092906;28;19908;-73
2021/06/18 10:16:30;;;;;;;;;;;25.90;99.90;;;;;;5092156;28;20253;-73
2021/06/18 10:19:00;;;;;;;;;;;25.90;99.90;;;;;;5092821;28;19908;-73
2021/06/18 10:21:27;;;;;;;;;;;26.00;99.90;;;;;;5092752;28;19968;-73
2021/06/18 10:24:02;;;;;;;;;;;26.10;99.90;;;;;;5091916;28;20393;-73
2021/06/18 10:26:29;;;;;;;;;;;26.20;99.90;;;;;;5092520;28;19908;-73
2021/06/18 10:28:58;;;;;;;;;;;26.30;99.90;;;;;;5092531;28;19908;-73
2021/06/18 10:31:27;;;;;;;;;;;26.40;99.90;;;;;;5092190;28;19908;-73
2021/06/18 10:34:04;;;;;;;;;;;26.60;99.90;;;;;;5092372;28;20011;-72
2021/06/18 10:36:30;;;;;;;;;;;26.80;99.90;;;;;;5092163;28;19927;-72
2021/06/18 10:39:14;;;;;;;;;;;27.00;99.90;;;;;;5091769;28;19908;-72
2021/06/18 10:41:43;;;;;;;;;;;27.10;99.90;;;;;;5092431;28;19909;-73
2021/06/18 10:44:08;;;;;;;;;;;27.40;99.90;;;;;;5091740;28;20747;-72
2021/06/18 10:46:37;;;;;;;;;;;27.50;99.90;;;;;;5092370;28;19912;-73
2021/06/18 10:49:06;;;;;;;;;;;27.70;99.90;;;;;;5092107;28;19908;-71
2021/06/18 10:51:38;;;;;;;;;;;27.90;99.90;;;;;;5091468;28;19918;-72
2021/06/18 10:54:04;;;;;;;;;;;28.20;99.90;;;;;;5093573;28;19961;-73
2021/06/18 10:56:45;;;;;;;;;;;28.40;99.90;;;;;;5096064;28;19916;-73
2021/06/18 10:59:25;;;;;;;;;;;28.50;99.90;;;;;;5095315;28;19908;-73
2021/06/18 11:01:51;;;;;;;;;;;28.50;99.90;;;;;;5096076;28;19927;-73
2021/06/18 11:04:34;;;;;;;;;;;28.40;99.90;;;;;;5095812;28;20003;-73
2021/06/18 11:06:59;;;;;;;;;;;28.40;99.90;;;;;;5095245;28;19908;-73
2021/06/18 11:09:45;;;;;;;;;;;28.30;99.90;;;;;;5095889;28;19962;-73
2021/06/18 11:12:23;;;;;;;;;;;28.30;99.90;;;;;;5094766;28;20026;-73
2021/06/18 11:14:49;;;;;;;;;;;28.40;99.90;;;;;;5095675;28;19916;-73
2021/06/18 11:17:35;;;;;;;;;;;28.40;99.90;;;;;;5095867;28;19915;-73
2021/06/18 11:20:00;;;;;;;;;;;28.40;99.90;;;;;;5094664;28;19974;-73
2021/06/18 11:22:37;;;;;;;;;;;28.40;99.90;;;;;;5095465;28;19913;-73
2021/06/18 11:25:22;;;;;;;;;;;28.50;99.90;;;;;;5095774;28;19908;-73
2021/06/18 11:27:48;;;;;;;;;;;28.60;99.90;;;;;;5094792;28;19908;-73
2021/06/18 11:30:29;;;;;;;;;;;28.80;99.90;;;;;;5095317;28;20324;-73
2021/06/18 11:32:55;;;;;;;;;;;28.90;99.90;;;;;;5095388;28;19995;-73
2021/06/18 11:35:32;;;;;;;;;;;29.10;99.90;;;;;;5094416;28;19951;-73
2021/06/18 11:38:20;;;;;;;;;;;29.20;99.90;;;;;;5095008;28;19928;-72
2021/06/18 11:40:53;;;;;;;;;;;29.40;99.90;;;;;;5094341;28;19908;-72
2021/06/18 11:43:23;;;;;;;;;;;29.50;99.90;;;;;;5095193;28;19977;-72
2021/06/18 11:45:49;;;;;;;;;;;29.50;99.90;;;;;;5095088;28;19908;-72
2021/06/18 11:48:15;;;;;;;;;;;29.50;99.90;;;;;;5094009;28;19908;-72
2021/06/18 11:50:42;;;;;;;;;;;29.50;99.90;;;;;;5094762;28;20268;-72
2021/06/18 11:53:08;;;;;;;;;;;29.60;99.90;;;;;;5093659;28;19912;-80
2021/06/18 11:55:34;;;;;;;;;;;29.60;99.80;;;;;;5099867;28;19938;-90
2021/06/18 11:57:59;;;;;;;;;;;29.60;99.80;;;;;;5106441;28;19918;-89
2021/06/18 12:00:34;;;;;;;;;;;29.80;99.50;;;;;;5106748;28;19912;-89
2021/06/18 12:03:00;;;;;;;;;;;30.00;99.40;;;;;;5116386;28;20348;-90
2021/06/18 12:05:32;;;;;;;;;;;30.20;99.30;;;;;;5123281;28;19998;-88
2021/06/18 12:07:58;;;;;;;;;;;30.40;98.60;;;;;;5111468;28;19937;-89
2021/06/18 12:10:29;;;;;;;;;;;30.40;97.30;;;;;;5109760;28;19974;-88
2021/06/18 12:12:56;;;;;;;;;;;30.30;97.60;;;;;;5115318;28;19912;-73
2021/06/18 12:15:42;;;;;;;;;;;30.30;97.80;;;;;;5092858;28;20364;-73
2021/06/18 12:18:08;;;;;;;;;;;30.10;96.90;;;;;;5094044;28;20047;-73
2021/06/18 12:20:41;;;;;;;;;;;30.00;97.40;;;;;;5093854;28;19954;-72
2021/06/18 12:23:11;;;;;;;;;;;30.10;97.70;;;;;;5093975;28;19951;-72
2021/06/18 12:25:36;;;;;;;;;;;30.10;97.60;;;;;;5094516;28;19915;-70
2021/06/18 12:28:03;;;;;;;;;;;30.20;97.40;;;;;;5093886;28;19909;-71
2021/06/18 12:30:29;;;;;;;;;;;30.20;96.70;;;;;;5092775;28;19914;-72
2021/06/18 12:32:55;;;;;;;;;;;30.40;96.20;;;;;;5093506;28;19987;-73
2021/06/18 12:35:31;;;;;;;;;;;30.40;95.70;;;;;;5094067;28;20006;-72
2021/06/18 12:38:00;;;;;;;;;;;30.40;95.00;;;;;;5092839;28;20010;-75
2021/06/18 12:40:27;;;;;;;;;;;30.40;94.90;;;;;;5094229;28;20280;-77
2021/06/18 12:42:53;;;;;;;;;;;30.70;95.30;;;;;;5093875;28;19908;-75
2021/06/18 12:45:19;;;;;;;;;;;30.70;94.70;;;;;;5092895;28;19909;-71
2021/06/18 12:47:48;;;;;;;;;;;30.80;94.40;;;;;;5093633;28;20279;-69
2021/06/18 12:50:28;;;;;;;;;;;31.00;94.10;;;;;;5093900;28;19915;-70
2021/06/18 12:52:58;;;;;;;;;;;31.00;93.50;;;;;;5093873;28;19908;-71
2021/06/18 12:55:24;;;;;;;;;;;31.20;93.40;;;;;;5093568;28;19922;-70
2021/06/18 12:58:01;;;;;;;;;;;31.30;93.30;;;;;;5092983;28;19922;-70
2021/06/18 13:00:28;;;;;;;;;;;31.50;92.90;;;;;;5094058;28;19908;-70
2021/06/18 13:02:55;;;;;;;;;;;31.60;92.90;;;;;;5093663;28;19939;-70
2021/06/18 13:05:21;;;;;;;;;;;31.60;92.40;;;;;;5092573;28;20390;-70
2021/06/18 13:07:48;;;;;;;;;;;31.70;92.20;;;;;;5093394;28;19939;-69
2021/06/18 13:10:14;;;;;;;;;;;31.80;91.70;;;;;;5093531;28;19912;-69
2021/06/18 13:12:39;;;;;;;;;;;31.90;91.70;;;;;;5092719;28;19915;-71
2021/06/18 13:15:07;;;;;;;;;;;32.00;91.50;;;;;;5093382;28;19966;-68
2021/06/18 13:17:35;;;;;;;;;;;32.10;91.10;;;;;;5092548;28;20317;-69
2021/06/18 13:20:00;;;;;;;;;;;32.10;91.00;;;;;;5092419;28;20435;-69
2021/06/18 13:22:35;;;;;;;;;;;32.10;90.80;;;;;;5093324;28;19912;-68
2021/06/18 13:25:03;;;;;;;;;;;32.20;90.80;;;;;;5093280;28;19908;-72
2021/06/18 13:27:30;;;;;;;;;;;32.20;90.90;;;;;;5092327;28;20308;-69
2021/06/18 13:29:58;;;;;;;;;;;32.30;90.20;;;;;;5093204;28;19908;-70
2021/06/18 13:32:25;;;;;;;;;;;32.40;89.20;;;;;;5093169;28;19931;-70
2021/06/18 13:34:57;;;;;;;;;;;32.50;89.40;;;;;;5092296;28;19916;-71
2021/06/18 13:37:28;;;;;;;;;;;32.60;88.50;;;;;;5090497;28;20492;-69
2021/06/18 13:40:04;;;;;;;;;;;32.60;88.70;;;;;;5092181;28;19912;-69
2021/06/18 13:42:30;;;;;;;;;;;32.70;88.20;;;;;;5093131;28;19912;-70
2021/06/18 13:44:55;;;;;;;;;;;32.70;86.40;;;;;;5093017;28;20379;-71
2021/06/18 13:47:21;;;;;;;;;;;32.80;86.50;;;;;;5092026;28;20028;-71
2021/06/18 13:49:46;;;;;;;;;;;33.00;84.90;;;;;;5092675;28;19908;-71
2021/06/18 13:52:12;;;;;;;;;;;32.90;84.90;;;;;;5092896;28;19912;-72
2021/06/18 13:54:37;;;;;;;;;;;33.00;84.70;;;;;;5092251;28;19970;-72
2021/06/18 13:57:03;;;;;;;;;;;33.10;84.00;;;;;;5092953;28;19908;-71
2021/06/18 13:59:28;;;;;;;;;;;33.20;83.60;;;;;;5092734;28;19912;-75
2021/06/18 14:01:54;;;;;;;;;;;33.30;83.40;;;;;;5091899;28;19908;-73
2021/06/18 14:04:20;;;;;;;;;;;33.20;83.30;;;;;;5092806;28;20021;-72
2021/06/18 14:06:45;;;;;;;;;;;33.20;83.30;;;;;;5092509;28;20308;-72
2021/06/18 14:09:11;;;;;;;;;;;33.30;82.60;;;;;;5092242;28;19912;-72
2021/06/18 14:11:37;;;;;;;;;;;33.30;81.50;;;;;;5092768;28;20271;-72
2021/06/18 14:14:04;;;;;;;;;;;33.10;81.40;;;;;;5092709;28;19915;-72
2021/06/18 14:16:50;;;;;;;;;;;32.80;82.00;;;;;;5091983;28;19916;-71
2021/06/18 14:19:15;;;;;;;;;;;32.40;81.80;;;;;;5092381;28;19908;-73